Time;durP1;ratioP1;P1;durP2;ratioP2;P2;SDS_P1;SDS_P2;PMS_P1;PMS_P2;Temp;Humidity;BMP_temperature;BMP_pressure;BME280_temperature;BME280_humidity;BME280_pressure;Samples;Min_cycle;Max_cycle;Signal;HPM_P1;HPM_P2
2021/08/29 00:00:21;;;;;;;15.20;8.17;;;;;;;;;;5030812;28;20389;-83
2021/08/29 00:02:46;;;;;;;13.75;8.02;;;;;;;;;;5031442;28;20275;-83
2021/08/29 00:05:12;;;;;;;11.93;7.97;;;;;;;;;;5030903;28;20033;-83
2021/08/29 00:07:37;;;;;;;12.27;7.15;;;;;;;;;;5034590;28;20264;-83
2021/08/29 00:10:02;;;;;;;12.95;7.50;;;;;;;;;;5034312;28;20029;-83
2021/08/29 00:12:28;;;;;;;14.13;7.10;;;;;;;;;;5034368;28;20022;-84
2021/08/29 00:14:53;;;;;;;12.43;7.57;;;;;;;;;;5039647;28;20105;-83
2021/08/29 00:17:19;;;;;;;13.40;7.70;;;;;;;;;;5037218;28;20100;-84
2021/08/29 00:19:45;;;;;;;12.77;7.65;;;;;;;;;;5035952;28;20401;-83
2021/08/29 00:22:10;;;;;;;13.35;7.15;;;;;;;;;;5036123;28;20025;-83
2021/08/29 00:24:35;;;;;;;14.50;7.43;;;;;;;;;;5035526;28;20079;-84
2021/08/29 00:27:01;;;;;;;13.93;7.10;;;;;;;;;;5035147;28;20036;-84
2021/08/29 00:29:26;;;;;;;12.90;6.68;;;;;;;;;;5034341;28;20097;-84
2021/08/29 00:31:51;;;;;;;15.27;6.88;;;;;;;;;;5034458;28;20013;-84
2021/08/29 00:34:17;;;;;;;19.58;8.30;;;;;;;;;;5032254;28;20481;-84
2021/08/29 00:36:42;;;;;;;15.55;7.28;;;;;;;;;;5033419;28;20029;-83
2021/08/29 00:39:07;;;;;;;9.57;6.18;;;;;;;;;;5033402;28;20025;-83
2021/08/29 00:41:33;;;;;;;11.47;6.13;;;;;;;;;;5032833;28;20029;-84
2021/08/29 00:43:58;;;;;;;10.93;6.80;;;;;;;;;;5033038;28;20393;-83
2021/08/29 00:46:24;;;;;;;9.43;5.68;;;;;;;;;;5034471;28;20284;-83
2021/08/29 00:48:50;;;;;;;10.70;6.55;;;;;;;;;;5037330;28;20017;-83
2021/08/29 00:51:15;;;;;;;9.68;5.82;;;;;;;;;;5035966;28;20021;-83
2021/08/29 00:53:47;;;;;;;9.45;5.97;;;;;;;;;;5036330;28;20039;-84
2021/08/29 00:56:12;;;;;;;10.52;6.10;;;;;;;;;;5035684;28;20031;-84
2021/08/29 00:58:38;;;;;;;10.00;6.20;;;;;;;;;;5033715;28;20025;-83
2021/08/29 01:01:03;;;;;;;10.75;5.35;;;;;;;;;;5032857;28;20040;-83
2021/08/29 01:03:28;;;;;;;11.60;5.40;;;;;;;;;;5033912;28;20029;-83
2021/08/29 01:06:00;;;;;;;10.00;5.78;;;;;;;;;;5032685;28;20346;-83
2021/08/29 01:08:28;;;;;;;8.73;5.50;;;;;;;;;;5032736;28;20060;-83
2021/08/29 01:10:55;;;;;;;8.38;5.00;;;;;;;;;;5035307;28;20021;-84
2021/08/29 01:13:24;;;;;;;7.60;4.95;;;;;;;;;;5036590;28;20092;-83
2021/08/29 01:15:51;;;;;;;8.55;5.50;;;;;;;;;;5035514;28;20095;-84
2021/08/29 01:18:19;;;;;;;8.43;5.32;;;;;;;;;;5034841;28;20021;-84
2021/08/29 01:21:03;;;;;;;11.45;4.50;;;;;;;;;;5034195;28;20044;-84
2021/08/29 01:23:29;;;;;;;8.43;4.40;;;;;;;;;;5034301;28;20029;-84
2021/08/29 01:25:59;;;;;;;5.57;4.18;;;;;;;;;;5033218;28;20481;-83
2021/08/29 01:28:34;;;;;;;7.28;4.25;;;;;;;;;;5032801;28;20014;-83
2021/08/29 01:31:01;;;;;;;6.15;4.53;;;;;;;;;;5032500;28;20030;-83
2021/08/29 01:33:26;;;;;;;6.68;4.03;;;;;;;;;;5032009;28;20021;-84
2021/08/29 01:35:52;;;;;;;6.10;4.17;;;;;;;;;;5037756;28;20024;-84
2021/08/29 01:38:18;;;;;;;7.10;4.60;;;;;;;;;;5034427;28;20264;-83
2021/08/29 01:40:44;;;;;;;5.68;3.28;;;;;;;;;;5035142;28;20112;-83
2021/08/29 01:43:09;;;;;;;4.35;3.22;;;;;;;;;;5032366;28;20021;-83
2021/08/29 01:45:36;;;;;;;4.87;2.83;;;;;;;;;;5032050;28;20029;-84
2021/08/29 01:48:02;;;;;;;5.57;3.38;;;;;;;;;;5031245;28;20253;-84
2021/08/29 01:50:27;;;;;;;3.70;2.95;;;;;;;;;;5032649;28;20100;-81
2021/08/29 01:52:52;;;;;;;3.92;3.00;;;;;;;;;;5032517;28;20032;-84
2021/08/29 01:55:17;;;;;;;6.28;3.03;;;;;;;;;;5032166;28;20032;-83
2021/08/29 01:57:43;;;;;;;8.00;3.27;;;;;;;;;;5032085;28;20531;-83
2021/08/29 02:00:08;;;;;;;4.93;3.20;;;;;;;;;;5036747;28;20267;-83
2021/08/29 02:02:34;;;;;;;7.50;3.42;;;;;;;;;;5033562;28;20029;-84
2021/08/29 02:04:59;;;;;;;4.60;3.03;;;;;;;;;;5032542;28;20485;-83
2021/08/29 02:07:28;;;;;;;4.40;2.88;;;;;;;;;;5031567;28;20045;-83
2021/08/29 02:09:59;;;;;;;4.22;2.85;;;;;;;;;;5033072;28;20075;-83
2021/08/29 02:12:26;;;;;;;5.70;3.35;;;;;;;;;;5030331;28;20026;-83
2021/08/29 02:15:11;;;;;;;4.97;3.70;;;;;;;;;;5030145;28;20060;-83
2021/08/29 02:17:38;;;;;;;7.05;3.70;;;;;;;;;;5032080;28;20464;-83
2021/08/29 02:20:06;;;;;;;5.95;3.78;;;;;;;;;;5032150;28;20040;-83
2021/08/29 02:22:32;;;;;;;7.65;4.07;;;;;;;;;;5030171;28;20025;-83
2021/08/29 02:24:57;;;;;;;8.88;4.47;;;;;;;;;;5032653;28;20017;-84
2021/08/29 02:27:22;;;;;;;6.93;3.97;;;;;;;;;;5034120;28;20045;-83
2021/08/29 02:29:48;;;;;;;7.53;4.28;;;;;;;;;;5032083;28;20140;-83
2021/08/29 02:32:16;;;;;;;6.00;4.47;;;;;;;;;;5031357;28;20366;-83
2021/08/29 02:34:41;;;;;;;6.20;3.63;;;;;;;;;;5032348;28;20018;-84
2021/08/29 02:37:07;;;;;;;9.75;4.50;;;;;;;;;;5030172;28;20392;-83
2021/08/29 02:39:35;;;;;;;8.45;3.92;;;;;;;;;;5031557;28;20029;-83
2021/08/29 02:42:00;;;;;;;6.95;3.85;;;;;;;;;;5030974;28;20041;-83
2021/08/29 02:44:26;;;;;;;6.70;4.25;;;;;;;;;;5031120;28;20366;-84
2021/08/29 02:46:51;;;;;;;7.43;4.13;;;;;;;;;;5031596;28;20455;-83
2021/08/29 02:49:20;;;;;;;7.00;3.72;;;;;;;;;;5030738;28;20026;-83
2021/08/29 02:51:46;;;;;;;6.70;4.38;;;;;;;;;;5036762;28;20028;-84
2021/08/29 02:54:11;;;;;;;5.07;4.25;;;;;;;;;;5034601;28;20029;-84
2021/08/29 02:56:37;;;;;;;10.25;5.07;;;;;;;;;;5033723;28;20771;-82
2021/08/29 02:59:02;;;;;;;8.52;4.18;;;;;;;;;;5030807;28;20029;-83
2021/08/29 03:01:27;;;;;;;8.77;4.38;;;;;;;;;;5030200;28;20029;-83
2021/08/29 03:03:53;;;;;;;7.03;5.50;;;;;;;;;;5031077;28;20022;-83
2021/08/29 03:06:18;;;;;;;10.40;5.20;;;;;;;;;;5029107;28;20283;-83
2021/08/29 03:08:43;;;;;;;7.20;4.55;;;;;;;;;;5030300;28;20096;-83
2021/08/29 03:11:09;;;;;;;6.68;4.15;;;;;;;;;;5030630;28;20036;-83
2021/08/29 03:13:35;;;;;;;6.55;4.22;;;;;;;;;;5030267;28;20017;-83
2021/08/29 03:16:00;;;;;;;8.85;5.18;;;;;;;;;;5033640;28;20128;-84
2021/08/29 03:18:26;;;;;;;17.83;5.72;;;;;;;;;;5033804;28;20021;-83
2021/08/29 03:20:52;;;;;;;8.30;5.50;;;;;;;;;;5034031;28;20492;-83
2021/08/29 03:23:17;;;;;;;7.90;4.47;;;;;;;;;;5033222;28;20029;-84
2021/08/29 03:25:42;;;;;;;8.32;4.93;;;;;;;;;;5031143;28;20116;-84
2021/08/29 03:28:08;;;;;;;6.68;5.03;;;;;;;;;;5031704;28;20385;-83
2021/08/29 03:30:33;;;;;;;6.78;4.13;;;;;;;;;;5029391;28;20026;-84
2021/08/29 03:32:58;;;;;;;7.90;4.70;;;;;;;;;;5030656;28;20147;-83
2021/08/29 03:35:23;;;;;;;6.60;4.50;;;;;;;;;;5030341;28;20299;-83
2021/08/29 03:37:49;;;;;;;8.25;4.55;;;;;;;;;;5029981;28;20524;-83
2021/08/29 03:40:14;;;;;;;7.25;4.70;;;;;;;;;;5035305;28;20021;-84
2021/08/29 03:42:40;;;;;;;7.13;5.00;;;;;;;;;;5038772;28;20039;-83
2021/08/29 03:45:06;;;;;;;4.38;3.95;;;;;;;;;;5038288;28;20022;-83
2021/08/29 03:47:32;;;;;;;8.10;4.80;;;;;;;;;;5036396;28;20018;-83
2021/08/29 03:49:58;;;;;;;7.90;4.43;;;;;;;;;;5037506;28;20053;-83
2021/08/29 03:52:23;;;;;;;7.50;4.40;;;;;;;;;;5033866;28;20060;-83
2021/08/29 03:54:48;;;;;;;4.90;4.13;;;;;;;;;;5033418;28;20112;-84
2021/08/29 03:57:14;;;;;;;4.22;3.83;;;;;;;;;;5033050;28;20032;-83
2021/08/29 03:59:39;;;;;;;7.30;4.80;;;;;;;;;;5034194;28;20108;-83
2021/08/29 04:02:05;;;;;;;4.55;3.72;;;;;;;;;;5032688;28;20025;-83
2021/08/29 04:04:31;;;;;;;7.22;5.38;;;;;;;;;;5032444;28;20029;-83
2021/08/29 04:06:57;;;;;;;11.45;4.93;;;;;;;;;;5036205;28;20075;-84
2021/08/29 04:09:23;;;;;;;7.70;4.85;;;;;;;;;;5039285;28;20741;-84
2021/08/29 04:11:49;;;;;;;9.43;5.57;;;;;;;;;;5037661;28;20030;-83
2021/08/29 04:14:15;;;;;;;7.35;5.88;;;;;;;;;;5034889;28;20022;-84
2021/08/29 04:16:40;;;;;;;8.48;6.07;;;;;;;;;;5035705;28;20498;-84
2021/08/29 04:19:05;;;;;;;10.68;6.63;;;;;;;;;;5034455;28;20028;-83
2021/08/29 04:21:31;;;;;;;10.43;6.93;;;;;;;;;;5034754;28;20072;-83
2021/08/29 04:23:56;;;;;;;11.52;7.22;;;;;;;;;;5032954;28;20694;-83
2021/08/29 04:26:22;;;;;;;8.75;5.78;;;;;;;;;;5032116;28;20066;-84
2021/08/29 04:28:47;;;;;;;10.45;6.50;;;;;;;;;;5032003;28;20048;-83
2021/08/29 04:31:15;;;;;;;12.23;7.88;;;;;;;;;;5037145;28;20013;-84
2021/08/29 04:33:41;;;;;;;13.27;8.40;;;;;;;;;;5035886;28;20025;-83
2021/08/29 04:36:09;;;;;;;15.02;8.15;;;;;;;;;;5034711;28;20079;-84
2021/08/29 04:38:35;;;;;;;15.07;7.60;;;;;;;;;;5035784;28;20021;-83
2021/08/29 04:41:00;;;;;;;13.80;8.15;;;;;;;;;;5035409;28;20366;-84
2021/08/29 04:43:26;;;;;;;13.43;7.78;;;;;;;;;;5035584;28;20083;-83
2021/08/29 04:45:51;;;;;;;14.48;7.30;;;;;;;;;;5035844;28;20044;-83
2021/08/29 04:48:16;;;;;;;15.75;7.82;;;;;;;;;;5035050;28;20104;-83
2021/08/29 04:50:42;;;;;;;12.80;7.20;;;;;;;;;;5033930;28;20021;-83
2021/08/29 04:53:07;;;;;;;9.40;6.27;;;;;;;;;;5034079;28;20380;-83
2021/08/29 04:55:32;;;;;;;9.25;6.57;;;;;;;;;;5031847;28;20034;-83
2021/08/29 04:57:57;;;;;;;11.90;6.90;;;;;;;;;;5035136;28;20017;-83
2021/08/29 05:00:22;;;;;;;12.50;6.90;;;;;;;;;;5037379;28;20053;-84
2021/08/29 05:02:48;;;;;;;11.50;6.60;;;;;;;;;;5035195;28;20268;-84
2021/08/29 05:05:13;;;;;;;9.80;6.50;;;;;;;;;;5035495;28;20507;-84
2021/08/29 05:07:38;;;;;;;11.90;5.65;;;;;;;;;;5034666;28;20314;-83
2021/08/29 05:10:03;;;;;;;13.90;5.47;;;;;;;;;;5032857;28;20036;-84
2021/08/29 05:12:29;;;;;;;9.68;5.25;;;;;;;;;;5032164;28;20036;-83
2021/08/29 05:14:54;;;;;;;10.17;5.50;;;;;;;;;;5033165;28;20040;-83
2021/08/29 05:17:19;;;;;;;8.47;4.80;;;;;;;;;;5032551;28;20307;-83
2021/08/29 05:19:44;;;;;;;10.35;4.60;;;;;;;;;;5032376;28;20249;-83
2021/08/29 05:22:09;;;;;;;10.17;5.27;;;;;;;;;;5032352;28;20029;-83
2021/08/29 05:24:34;;;;;;;10.40;5.07;;;;;;;;;;5032235;28;20041;-83
2021/08/29 05:27:00;;;;;;;13.67;4.83;;;;;;;;;;5034838;28;20326;-84
2021/08/29 05:29:25;;;;;;;8.20;5.10;;;;;;;;;;5036958;28;20327;-84
2021/08/29 05:31:50;;;;;;;7.30;4.57;;;;;;;;;;5033930;28;20758;-84
2021/08/29 05:34:15;;;;;;;7.07;4.50;;;;;;;;;;5036286;28;20265;-83
2021/08/29 05:36:41;;;;;;;8.73;4.57;;;;;;;;;;5036066;28;20511;-83
2021/08/29 05:39:06;;;;;;;10.18;4.90;;;;;;;;;;5034513;28;20072;-84
2021/08/29 05:41:31;;;;;;;12.82;4.80;;;;;;;;;;5032933;28;20025;-83
2021/08/29 05:43:56;;;;;;;9.33;4.20;;;;;;;;;;5030925;28;20474;-84
2021/08/29 05:46:21;;;;;;;9.30;4.20;;;;;;;;;;5032248;28;20367;-83
2021/08/29 05:48:49;;;;;;;7.87;4.50;;;;;;;;;;5032116;28;20071;-83
2021/08/29 05:51:15;;;;;;;11.18;4.70;;;;;;;;;;5030724;28;20263;-84
2021/08/29 05:53:40;;;;;;;12.67;5.13;;;;;;;;;;5035884;28;20017;-84
2021/08/29 05:56:05;;;;;;;10.80;4.90;;;;;;;;;;5037049;28;20263;-84
2021/08/29 05:58:30;;;;;;;11.68;4.70;;;;;;;;;;5034582;28;20260;-83
2021/08/29 06:00:55;;;;;;;7.33;5.00;;;;;;;;;;5033250;28;20044;-81
2021/08/29 06:03:21;;;;;;;7.07;4.60;;;;;;;;;;5033238;28;20256;-82
2021/08/29 06:05:46;;;;;;;7.80;4.60;;;;;;;;;;5030734;28;20807;-82
2021/08/29 06:08:11;;;;;;;9.75;6.20;;;;;;;;;;5038145;28;20483;-82
2021/08/29 06:10:36;;;;;;;11.77;5.17;;;;;;;;;;5037716;28;20423;-82
2021/08/29 06:13:02;;;;;;;7.65;4.65;;;;;;;;;;5029358;28;20302;-82
2021/08/29 06:15:27;;;;;;;7.22;5.15;;;;;;;;;;5043350;28;20497;-82
2021/08/29 06:17:52;;;;;;;11.63;4.65;;;;;;;;;;5032434;28;20021;-81
2021/08/29 06:20:17;;;;;;;10.17;4.40;;;;;;;;;;5039067;28;20021;-81
2021/08/29 06:22:42;;;;;;;8.40;4.80;;;;;;;;;;5037429;28;20255;-81
2021/08/29 06:25:08;;;;;;;8.77;5.20;;;;;;;;;;5044492;28;21006;-81
2021/08/29 06:27:33;;;;;;;11.30;4.70;;;;;;;;;;5030700;28;20256;-82
2021/08/29 06:29:58;;;;;;;7.53;4.30;;;;;;;;;;5037907;28;20415;-82
2021/08/29 06:32:23;;;;;;;11.30;5.53;;;;;;;;;;5040113;28;20022;-82
2021/08/29 06:34:49;;;;;;;9.03;5.33;;;;;;;;;;5041061;28;20025;-81
2021/08/29 06:37:14;;;;;;;11.63;5.57;;;;;;;;;;5032614;28;20268;-81
2021/08/29 06:39:39;;;;;;;9.13;5.57;;;;;;;;;;5048513;28;20270;-81
2021/08/29 06:42:04;;;;;;;6.63;4.40;;;;;;;;;;5039181;28;20432;-81
2021/08/29 06:44:29;;;;;;;10.88;5.22;;;;;;;;;;5037658;28;20043;-82
2021/08/29 06:46:55;;;;;;;9.67;5.07;;;;;;;;;;5048926;28;20576;-81
2021/08/29 06:49:20;;;;;;;9.20;5.07;;;;;;;;;;5032585;28;20260;-82
2021/08/29 06:51:45;;;;;;;9.03;4.77;;;;;;;;;;5041957;28;20299;-81
2021/08/29 06:54:10;;;;;;;11.10;4.60;;;;;;;;;;5028063;28;20021;-82
2021/08/29 06:56:35;;;;;;;4.82;3.85;;;;;;;;;;5032344;28;20268;-82
2021/08/29 06:59:01;;;;;;;10.85;4.13;;;;;;;;;;5030414;28;20502;-82
2021/08/29 07:01:26;;;;;;;7.63;3.70;;;;;;;;;;5030143;28;20569;-82
2021/08/29 07:03:51;;;;;;;5.27;3.43;;;;;;;;;;5042443;28;20032;-81
2021/08/29 07:06:19;;;;;;;4.83;3.43;;;;;;;;;;5038435;28;20322;-82
2021/08/29 07:08:45;;;;;;;4.00;3.53;;;;;;;;;;5035872;28;20260;-82
2021/08/29 07:11:10;;;;;;;7.60;4.30;;;;;;;;;;5043264;28;20021;-81
2021/08/29 07:13:35;;;;;;;6.15;4.32;;;;;;;;;;5041988;28;21050;-81
2021/08/29 07:16:00;;;;;;;8.13;4.90;;;;;;;;;;5032520;28;20049;-82
2021/08/29 07:18:25;;;;;;;13.27;5.70;;;;;;;;;;5036799;28;20064;-81
2021/08/29 07:20:51;;;;;;;11.27;6.53;;;;;;;;;;5041888;28;20025;-81
2021/08/29 07:23:17;;;;;;;11.40;6.60;;;;;;;;;;5029675;28;20271;-82
2021/08/29 07:25:43;;;;;;;11.50;6.30;;;;;;;;;;5045196;28;20458;-82
2021/08/29 07:28:08;;;;;;;10.95;6.22;;;;;;;;;;5038844;28;20036;-82
2021/08/29 07:30:33;;;;;;;9.53;5.50;;;;;;;;;;5036316;28;20496;-81
2021/08/29 07:32:58;;;;;;;11.05;6.22;;;;;;;;;;5044299;28;20017;-81
2021/08/29 07:35:24;;;;;;;8.53;6.03;;;;;;;;;;5032107;28;20045;-82
2021/08/29 07:37:49;;;;;;;8.18;5.57;;;;;;;;;;5047127;28;20029;-81
2021/08/29 07:40:15;;;;;;;10.67;6.60;;;;;;;;;;5039717;28;20737;-82
2021/08/29 07:42:40;;;;;;;15.80;6.40;;;;;;;;;;5039753;28;20020;-80
2021/08/29 07:45:05;;;;;;;9.33;6.50;;;;;;;;;;5030458;28;20076;-81
2021/08/29 07:47:32;;;;;;;16.08;7.10;;;;;;;;;;5042922;28;20263;-80
2021/08/29 07:49:57;;;;;;;13.38;6.20;;;;;;;;;;5035123;28;20380;-81
2021/08/29 07:52:22;;;;;;;11.43;6.88;;;;;;;;;;5038684;28;20465;-80
2021/08/29 07:54:48;;;;;;;8.85;5.63;;;;;;;;;;5040028;28;20028;-80
2021/08/29 07:57:13;;;;;;;9.80;6.03;;;;;;;;;;5028293;28;20033;-80
2021/08/29 07:59:38;;;;;;;14.27;7.20;;;;;;;;;;5043927;28;20024;-81
2021/08/29 08:02:03;;;;;;;13.07;6.85;;;;;;;;;;5043402;28;20264;-81
2021/08/29 08:04:29;;;;;;;11.75;7.50;;;;;;;;;;5039393;28;20128;-80
2021/08/29 08:07:03;;;;;;;14.70;7.60;;;;;;;;;;5034339;28;20030;-81
2021/08/29 08:09:28;;;;;;;15.02;7.28;;;;;;;;;;5032175;28;20263;-81
2021/08/29 08:11:53;;;;;;;13.63;7.47;;;;;;;;;;5042797;28;20013;-81
2021/08/29 08:14:19;;;;;;;14.77;9.03;;;;;;;;;;5037672;28;20934;-81
2021/08/29 08:16:44;;;;;;;14.60;9.23;;;;;;;;;;5034388;28;20059;-81
2021/08/29 08:19:09;;;;;;;19.23;9.13;;;;;;;;;;5025574;28;20068;-81
2021/08/29 08:21:34;;;;;;;22.63;8.80;;;;;;;;;;5042201;28;20025;-81
2021/08/29 08:23:59;;;;;;;15.23;8.90;;;;;;;;;;5034033;28;20032;-80
2021/08/29 08:26:24;;;;;;;22.17;10.00;;;;;;;;;;5038590;28;20331;-80
2021/08/29 08:28:50;;;;;;;21.63;10.10;;;;;;;;;;5041787;28;20021;-80
2021/08/29 08:31:15;;;;;;;16.23;10.60;;;;;;;;;;5032852;28;20252;-80
2021/08/29 08:33:40;;;;;;;19.30;9.93;;;;;;;;;;5045184;28;20025;-81
2021/08/29 08:36:05;;;;;;;25.00;10.23;;;;;;;;;;5040755;28;20092;-81
2021/08/29 08:38:30;;;;;;;21.70;9.60;;;;;;;;;;5040523;28;20275;-81
2021/08/29 08:40:56;;;;;;;27.17;11.40;;;;;;;;;;5047507;28;20071;-81
2021/08/29 08:43:21;;;;;;;15.40;10.15;;;;;;;;;;5032162;28;20034;-81
2021/08/29 08:45:47;;;;;;;20.77;11.17;;;;;;;;;;5031187;28;20536;-81
2021/08/29 08:48:12;;;;;;;16.65;9.85;;;;;;;;;;5038726;28;20296;-81
2021/08/29 08:50:38;;;;;;;26.10;11.85;;;;;;;;;;5037047;28;20026;-81
2021/08/29 08:53:04;;;;;;;24.40;11.23;;;;;;;;;;5044296;28;20021;-81
2021/08/29 08:55:30;;;;;;;18.25;10.85;;;;;;;;;;5034546;28;20021;-81
2021/08/29 08:57:55;;;;;;;20.35;11.27;;;;;;;;;;5043743;28;20552;-81
2021/08/29 09:00:20;;;;;;;15.50;10.20;;;;;;;;;;5027948;28;20040;-81
2021/08/29 09:02:46;;;;;;;23.60;11.57;;;;;;;;;;5041796;28;20063;-80
2021/08/29 09:05:11;;;;;;;15.75;10.05;;;;;;;;;;5036097;28;20318;-81
2021/08/29 09:07:36;;;;;;;19.13;12.00;;;;;;;;;;5048324;28;20469;-81
2021/08/29 09:10:02;;;;;;;21.85;11.48;;;;;;;;;;5036591;28;20127;-81
2021/08/29 09:12:27;;;;;;;17.52;9.77;;;;;;;;;;5040528;28;20024;-81
2021/08/29 09:14:57;;;;;;;15.43;10.97;;;;;;;;;;5045560;28;20021;-81
2021/08/29 09:17:26;;;;;;;20.55;9.68;;;;;;;;;;5031673;28;20327;-81
2021/08/29 09:20:13;;;;;;;17.85;10.57;;;;;;;;;;5035503;28;20777;-81
2021/08/29 09:22:40;;;;;;;14.88;10.00;;;;;;;;;;5038178;28;20096;-83
2021/08/29 09:25:10;;;;;;;21.88;10.43;;;;;;;;;;5044368;28;20118;-82
2021/08/29 09:27:38;;;;;;;18.15;11.82;;;;;;;;;;5045668;28;20048;-82
2021/08/29 09:30:04;;;;;;;18.50;10.25;;;;;;;;;;5035214;28;20017;-82
2021/08/29 09:32:29;;;;;;;20.95;11.90;;;;;;;;;;5031017;28;20571;-81
2021/08/29 09:35:00;;;;;;;21.33;12.13;;;;;;;;;;5036739;28;20036;-81
2021/08/29 09:37:25;;;;;;;16.90;10.52;;;;;;;;;;5030465;28;20272;-82
2021/08/29 09:39:50;;;;;;;22.92;11.95;;;;;;;;;;5044862;28;20444;-81
2021/08/29 09:42:16;;;;;;;15.20;10.40;;;;;;;;;;5030476;28;20039;-81
2021/08/29 09:44:41;;;;;;;14.40;10.45;;;;;;;;;;5028353;28;20025;-81
2021/08/29 09:47:10;;;;;;;15.75;10.25;;;;;;;;;;5037224;28;20560;-82
2021/08/29 09:49:36;;;;;;;20.27;11.85;;;;;;;;;;5029671;28;20032;-82
2021/08/29 09:52:03;;;;;;;16.65;10.95;;;;;;;;;;5036492;28;20021;-82
2021/08/29 09:54:28;;;;;;;27.40;12.48;;;;;;;;;;5040155;28;20109;-82
2021/08/29 09:56:54;;;;;;;18.83;11.52;;;;;;;;;;5046399;28;20072;-82
2021/08/29 09:59:36;;;;;;;16.40;10.82;;;;;;;;;;5033441;28;20029;-82
2021/08/29 10:02:02;;;;;;;18.33;10.95;;;;;;;;;;5028515;28;20029;-82
2021/08/29 10:04:27;;;;;;;18.00;11.88;;;;;;;;;;5035881;28;20029;-82
2021/08/29 10:06:52;;;;;;;19.27;12.13;;;;;;;;;;5029279;28;20087;-82
2021/08/29 10:09:24;;;;;;;17.35;11.85;;;;;;;;;;5044327;28;20108;-81
2021/08/29 10:11:49;;;;;;;15.48;11.60;;;;;;;;;;5033160;28;20464;-81
2021/08/29 10:14:15;;;;;;;17.45;12.27;;;;;;;;;;5040473;28;20027;-81
2021/08/29 10:16:40;;;;;;;22.33;13.15;;;;;;;;;;5029058;28;20054;-81
2021/08/29 10:19:05;;;;;;;16.63;11.85;;;;;;;;;;5043282;28;20040;-81
2021/08/29 10:21:31;;;;;;;16.20;11.60;;;;;;;;;;5028781;28;20040;-81
2021/08/29 10:23:57;;;;;;;21.70;11.73;;;;;;;;;;5034441;28;20032;-82
2021/08/29 10:26:24;;;;;;;18.92;11.50;;;;;;;;;;5036328;28;20025;-81
2021/08/29 10:28:57;;;;;;;17.60;11.85;;;;;;;;;;5027645;28;20444;-81
2021/08/29 10:31:31;;;;;;;18.20;12.20;;;;;;;;;;5042385;28;20058;-81
2021/08/29 10:33:56;;;;;;;15.98;12.70;;;;;;;;;;5027712;28;20021;-82
2021/08/29 10:36:22;;;;;;;16.85;12.23;;;;;;;;;;5039314;28;20464;-82
2021/08/29 10:38:48;;;;;;;15.30;10.93;;;;;;;;;;5034111;28;20752;-82
2021/08/29 10:41:17;;;;;;;15.10;12.25;;;;;;;;;;5046581;28;20060;-82
2021/08/29 10:43:43;;;;;;;16.98;11.43;;;;;;;;;;5046743;28;20025;-81
2021/08/29 10:46:10;;;;;;;15.05;11.35;;;;;;;;;;5036183;28;20362;-82
2021/08/29 10:48:40;;;;;;;17.88;12.60;;;;;;;;;;5037865;28;20111;-82
2021/08/29 10:51:06;;;;;;;17.30;11.95;;;;;;;;;;5044384;28;20017;-81
2021/08/29 10:53:31;;;;;;;16.42;11.52;;;;;;;;;;5032635;28;20104;-81
2021/08/29 10:56:22;;;;;;;21.43;12.80;;;;;;;;;;5042296;28;20410;-82
2021/08/29 10:59:08;;;;;;;15.45;10.68;;;;;;;;;;5026330;28;20477;-82
2021/08/29 11:01:33;;;;;;;18.48;12.38;;;;;;;;;;5028981;28;20139;-82
2021/08/29 11:03:58;;;;;;;18.58;11.02;;;;;;;;;;5041601;28;20041;-82
2021/08/29 11:06:42;;;;;;;17.43;11.37;;;;;;;;;;5037585;28;20032;-81
2021/08/29 11:09:26;;;;;;;12.60;10.02;;;;;;;;;;5030824;28;20017;-81
2021/08/29 11:11:51;;;;;;;15.55;10.93;;;;;;;;;;5033805;28;20017;-82
2021/08/29 11:14:35;;;;;;;14.57;10.57;;;;;;;;;;5037206;28;20026;-82
2021/08/29 11:17:08;;;;;;;12.32;10.02;;;;;;;;;;5042855;28;20055;-82
2021/08/29 11:19:37;;;;;;;14.48;10.60;;;;;;;;;;5030044;28;20016;-82
2021/08/29 11:22:02;;;;;;;15.85;10.15;;;;;;;;;;5040605;28;20026;-82
2021/08/29 11:24:47;;;;;;;12.75;9.88;;;;;;;;;;5038313;28;20062;-82
2021/08/29 11:27:43;;;;;;;14.35;8.98;;;;;;;;;;5033251;28;20060;-82
2021/08/29 11:30:10;;;;;;;16.10;10.82;;;;;;;;;;5023581;28;20041;-82
2021/08/29 11:32:43;;;;;;;13.27;9.77;;;;;;;;;;5038611;28;20025;-82
2021/08/29 11:35:14;;;;;;;12.10;9.25;;;;;;;;;;5029626;28;20033;-82
2021/08/29 11:37:39;;;;;;;11.80;9.63;;;;;;;;;;5007701;28;20086;-82
2021/08/29 11:40:06;;;;;;;15.38;10.40;;;;;;;;;;5022047;28;20101;-81
2021/08/29 11:42:31;;;;;;;16.42;10.45;;;;;;;;;;5036374;28;20018;-82
2021/08/29 11:44:57;;;;;;;13.77;10.83;;;;;;;;;;5041892;28;20021;-82
2021/08/29 11:47:22;;;;;;;14.88;11.50;;;;;;;;;;5045870;28;20025;-82
2021/08/29 11:49:55;;;;;;;20.63;10.90;;;;;;;;;;5031947;28;20135;-82
2021/08/29 11:52:26;;;;;;;12.60;10.52;;;;;;;;;;5038484;28;20021;-81
2021/08/29 11:55:07;;;;;;;14.55;11.10;;;;;;;;;;5041822;28;20737;-82
2021/08/29 11:57:44;;;;;;;15.38;10.02;;;;;;;;;;5030719;28;20017;-82
2021/08/29 12:00:10;;;;;;;15.15;11.73;;;;;;;;;;5047536;28;20037;-81
2021/08/29 12:02:41;;;;;;;18.98;12.45;;;;;;;;;;5039089;28;20052;-83
2021/08/29 12:05:06;;;;;;;;;;;;;;;;;;5031765;28;20075;-82
2021/08/29 12:07:35;;;;;;;18.70;11.25;;;;;;;;;;5049222;28;19916;-83
2021/08/29 12:10:01;;;;;;;18.80;11.55;;;;;;;;;;5043160;28;20017;-83
2021/08/29 12:12:26;;;;;;;14.32;11.10;;;;;;;;;;5044266;28;20431;-83
2021/08/29 12:14:52;;;;;;;23.55;11.60;;;;;;;;;;5048172;28;20021;-83
2021/08/29 12:17:19;;;;;;;18.08;11.38;;;;;;;;;;5038253;28;20076;-83
2021/08/29 12:19:45;;;;;;;16.70;10.88;;;;;;;;;;5049832;28;20460;-83
2021/08/29 12:22:11;;;;;;;14.25;10.48;;;;;;;;;;5041644;28;20021;-83
2021/08/29 12:24:41;;;;;;;15.52;9.93;;;;;;;;;;5041641;28;20025;-83
2021/08/29 12:27:14;;;;;;;15.13;10.20;;;;;;;;;;5049399;28;20036;-83
2021/08/29 12:29:48;;;;;;;18.42;10.18;;;;;;;;;;5019814;28;20541;-82
2021/08/29 12:32:15;;;;;;;16.17;9.77;;;;;;;;;;5042803;28;20622;-83
2021/08/29 12:34:41;;;;;;;18.23;10.18;;;;;;;;;;5029512;28;20033;-83
2021/08/29 12:37:07;;;;;;;14.80;9.50;;;;;;;;;;5047053;28;20021;-83
2021/08/29 12:39:33;;;;;;;15.73;9.05;;;;;;;;;;5034809;28;20017;-82
2021/08/29 12:42:18;;;;;;;15.95;9.82;;;;;;;;;;5044301;28;20098;-82
2021/08/29 12:44:43;;;;;;;16.85;9.52;;;;;;;;;;5043749;28;20032;-83
2021/08/29 12:47:09;;;;;;;10.93;8.85;;;;;;;;;;5051845;28;20033;-82
2021/08/29 12:49:34;;;;;;;12.50;9.38;;;;;;;;;;5034162;28;20017;-83
2021/08/29 12:51:59;;;;;;;12.47;9.40;;;;;;;;;;5043553;28;20022;-83
2021/08/29 12:54:24;;;;;;;15.23;9.82;;;;;;;;;;5030988;28;20264;-82
2021/08/29 12:56:50;;;;;;;20.27;8.97;;;;;;;;;;5044315;28;20481;-82
2021/08/29 12:59:24;;;;;;;16.38;8.77;;;;;;;;;;5033274;28;20811;-81
2021/08/29 13:01:52;;;;;;;13.40;8.13;;;;;;;;;;5044554;28;20126;-81
2021/08/29 13:04:22;;;;;;;11.80;8.23;;;;;;;;;;5037853;28;20020;-81
2021/08/29 13:06:47;;;;;;;13.90;10.98;;;;;;;;;;5035898;28;20503;-81
2021/08/29 13:09:13;;;;;;;12.07;8.98;;;;;;;;;;5046439;28;20103;-81
2021/08/29 13:11:43;;;;;;;15.30;8.63;;;;;;;;;;5034478;28;20108;-81
2021/08/29 13:14:09;;;;;;;12.15;8.15;;;;;;;;;;5044971;28;20052;-81
2021/08/29 13:16:38;;;;;;;8.80;7.93;;;;;;;;;;5042742;28;20148;-81
2021/08/29 13:19:03;;;;;;;11.38;8.43;;;;;;;;;;5035892;28;20085;-81
2021/08/29 13:21:30;;;;;;;12.48;7.80;;;;;;;;;;5047764;28;20762;-81
2021/08/29 13:23:57;;;;;;;13.88;7.68;;;;;;;;;;5031535;28;20045;-81
2021/08/29 13:26:23;;;;;;;10.70;7.57;;;;;;;;;;5040419;28;20017;-81
2021/08/29 13:28:50;;;;;;;9.30;7.47;;;;;;;;;;5036491;28;20048;-81
2021/08/29 13:31:15;;;;;;;14.68;8.05;;;;;;;;;;5048706;28;20017;-84
2021/08/29 13:33:40;;;;;;;10.27;7.90;;;;;;;;;;5032635;28;20109;-83
2021/08/29 13:36:07;;;;;;;8.07;7.27;;;;;;;;;;5040873;28;20025;-83
2021/08/29 13:38:33;;;;;;;8.82;7.70;;;;;;;;;;5040344;28;20068;-82
2021/08/29 13:41:00;;;;;;;11.18;8.75;;;;;;;;;;5045605;28;20032;-83
2021/08/29 13:43:29;;;;;;;10.52;8.60;;;;;;;;;;5035673;28;20025;-84
2021/08/29 13:45:58;;;;;;;12.63;8.90;;;;;;;;;;5043451;28;20025;-82
2021/08/29 13:48:23;;;;;;;14.75;8.57;;;;;;;;;;5039571;28;20101;-83
2021/08/29 13:50:48;;;;;;;12.13;9.43;;;;;;;;;;5037266;28;20112;-83
2021/08/29 13:53:14;;;;;;;12.30;9.27;;;;;;;;;;5047918;28;20024;-82
2021/08/29 13:55:40;;;;;;;11.88;8.73;;;;;;;;;;5033247;28;20264;-82
2021/08/29 13:58:06;;;;;;;14.63;8.95;;;;;;;;;;5041539;28;20104;-82
2021/08/29 14:00:33;;;;;;;11.88;8.20;;;;;;;;;;5030009;28;20025;-83
2021/08/29 14:03:00;;;;;;;11.82;8.88;;;;;;;;;;5046190;28;20036;-83
2021/08/29 14:05:26;;;;;;;15.80;8.45;;;;;;;;;;5048151;28;20310;-82
2021/08/29 14:07:51;;;;;;;17.80;9.43;;;;;;;;;;5036900;28;20021;-82
2021/08/29 14:10:16;;;;;;;10.55;8.10;;;;;;;;;;5041631;28;20108;-83
2021/08/29 14:12:42;;;;;;;10.15;7.47;;;;;;;;;;5042553;28;20441;-82
2021/08/29 14:15:07;;;;;;;12.43;8.70;;;;;;;;;;5032178;28;20049;-82
2021/08/29 14:17:32;;;;;;;9.55;8.35;;;;;;;;;;5045312;28;20040;-82
2021/08/29 14:19:57;;;;;;;13.10;8.63;;;;;;;;;;5035344;28;20021;-83
2021/08/29 14:22:23;;;;;;;10.27;9.00;;;;;;;;;;5040070;28;20021;-82
2021/08/29 14:24:48;;;;;;;12.47;8.17;;;;;;;;;;5041900;28;20276;-83
2021/08/29 14:27:13;;;;;;;12.00;8.23;;;;;;;;;;5047493;28;20047;-83